sensor_id;sensor_type;location;lat;lon;timestamp;P1;durP1;ratioP1;P2;durP2;ratioP2
20456;SDS011;10387;51.102;6.848;2023-02-28T00:00:09;6.27;;;5.03;;
20456;SDS011;10387;51.102;6.848;2023-02-28T00:02:37;5.27;;;4.30;;
20456;SDS011;10387;51.102;6.848;2023-02-28T00:05:03;5.60;;;4.43;;
20456;SDS011;10387;51.102;6.848;2023-02-28T00:07:30;4.73;;;4.23;;
20456;SDS011;10387;51.102;6.848;2023-02-28T00:09:56;6.87;;;4.67;;
20456;SDS011;10387;51.102;6.848;2023-02-28T00:12:22;5.47;;;4.33;;
20456;SDS011;10387;51.102;6.848;2023-02-28T00:14:48;6.03;;;4.60;;
20456;SDS011;10387;51.102;6.848;2023-02-28T00:17:14;5.80;;;4.67;;
20456;SDS011;10387;51.102;6.848;2023-02-28T00:19:49;5.07;;;4.00;;
20456;SDS011;10387;51.102;6.848;2023-02-28T00:22:16;4.47;;;4.07;;
20456;SDS011;10387;51.102;6.848;2023-02-28T00:24:43;5.83;;;4.53;;
20456;SDS011;10387;51.102;6.848;2023-02-28T00:27:09;5.17;;;3.90;;
20456;SDS011;10387;51.102;6.848;2023-02-28T00:29:35;4.67;;;4.17;;
20456;SDS011;10387;51.102;6.848;2023-02-28T00:32:00;5.93;;;4.10;;
20456;SDS011;10387;51.102;6.848;2023-02-28T00:34:26;4.50;;;4.10;;
20456;SDS011;10387;51.102;6.848;2023-02-28T00:36:52;4.63;;;4.03;;
20456;SDS011;10387;51.102;6.848;2023-02-28T00:39:18;4.97;;;4.37;;
20456;SDS011;10387;51.102;6.848;2023-02-28T00:41:43;6.47;;;4.70;;
20456;SDS011;10387;51.102;6.848;2023-02-28T00:44:09;6.27;;;4.37;;
20456;SDS011;10387;51.102;6.848;2023-02-28T00:46:35;6.50;;;4.43;;
20456;SDS011;10387;51.102;6.848;2023-02-28T00:49:00;6.37;;;4.77;;
20456;SDS011;10387;51.102;6.848;2023-02-28T00:51:26;6.90;;;4.47;;
20456;SDS011;10387;51.102;6.848;2023-02-28T00:53:52;5.97;;;4.10;;
20456;SDS011;10387;51.102;6.848;2023-02-28T00:56:17;5.10;;;4.60;;
20456;SDS011;10387;51.102;6.848;2023-02-28T00:58:43;4.53;;;4.00;;
20456;SDS011;10387;51.102;6.848;2023-02-28T01:01:09;5.70;;;4.23;;
20456;SDS011;10387;51.102;6.848;2023-02-28T01:03:36;4.20;;;3.80;;
20456;SDS011;10387;51.102;6.848;2023-02-28T01:06:03;4.87;;;3.73;;
20456;SDS011;10387;51.102;6.848;2023-02-28T01:08:29;5.07;;;3.63;;
20456;SDS011;10387;51.102;6.848;2023-02-28T01:10:55;4.17;;;3.73;;
20456;SDS011;10387;51.102;6.848;2023-02-28T01:13:21;4.97;;;3.53;;
20456;SDS011;10387;51.102;6.848;2023-02-28T01:15:49;5.87;;;3.90;;
20456;SDS011;10387;51.102;6.848;2023-02-28T01:18:16;5.13;;;3.73;;
20456;SDS011;10387;51.102;6.848;2023-02-28T01:20:42;4.50;;;4.03;;
20456;SDS011;10387;51.102;6.848;2023-02-28T01:23:08;4.57;;;4.07;;
20456;SDS011;10387;51.102;6.848;2023-02-28T01:25:34;4.83;;;4.10;;
20456;SDS011;10387;51.102;6.848;2023-02-28T01:28:03;4.93;;;3.67;;
20456;SDS011;10387;51.102;6.848;2023-02-28T01:30:31;6.40;;;4.33;;
20456;SDS011;10387;51.102;6.848;2023-02-28T01:32:57;4.37;;;3.83;;
20456;SDS011;10387;51.102;6.848;2023-02-28T01:35:24;4.43;;;4.10;;
20456;SDS011;10387;51.102;6.848;2023-02-28T01:37:50;5.10;;;4.43;;
20456;SDS011;10387;51.102;6.848;2023-02-28T01:40:15;4.23;;;3.80;;
20456;SDS011;10387;51.102;6.848;2023-02-28T01:42:41;5.23;;;3.67;;
20456;SDS011;10387;51.102;6.848;2023-02-28T01:45:27;5.60;;;4.10;;
20456;SDS011;10387;51.102;6.848;2023-02-28T01:47:59;4.73;;;3.83;;
20456;SDS011;10387;51.102;6.848;2023-02-28T01:50:29;5.90;;;4.00;;
20456;SDS011;10387;51.102;6.848;2023-02-28T01:53:00;5.20;;;4.30;;
20456;SDS011;10387;51.102;6.848;2023-02-28T01:55:30;6.43;;;3.83;;
20456;SDS011;10387;51.102;6.848;2023-02-28T01:57:58;7.23;;;4.20;;
20456;SDS011;10387;51.102;6.848;2023-02-28T02:00:27;5.40;;;4.07;;
20456;SDS011;10387;51.102;6.848;2023-02-28T02:02:56;5.33;;;4.23;;
20456;SDS011;10387;51.102;6.848;2023-02-28T02:05:25;5.73;;;4.03;;
20456;SDS011;10387;51.102;6.848;2023-02-28T02:10:54;4.27;;;3.87;;
20456;SDS011;10387;51.102;6.848;2023-02-28T02:25:32;6.17;;;4.20;;
20456;SDS011;10387;51.102;6.848;2023-02-28T02:31:16;6.73;;;4.23;;
20456;SDS011;10387;51.102;6.848;2023-02-28T02:34:07;5.13;;;4.33;;
20456;SDS011;10387;51.102;6.848;2023-02-28T02:36:38;4.97;;;4.40;;
20456;SDS011;10387;51.102;6.848;2023-02-28T02:42:17;5.83;;;4.50;;
20456;SDS011;10387;51.102;6.848;2023-02-28T02:45:07;6.13;;;4.00;;
20456;SDS011;10387;51.102;6.848;2023-02-28T02:47:55;6.37;;;4.40;;
20456;SDS011;10387;51.102;6.848;2023-02-28T02:50:25;5.63;;;5.07;;
20456;SDS011;10387;51.102;6.848;2023-02-28T02:52:57;6.60;;;4.63;;
20456;SDS011;10387;51.102;6.848;2023-02-28T02:55:27;6.03;;;4.93;;
20456;SDS011;10387;51.102;6.848;2023-02-28T02:57:57;6.50;;;4.90;;
20456;SDS011;10387;51.102;6.848;2023-02-28T03:00:37;7.27;;;5.13;;
20456;SDS011;10387;51.102;6.848;2023-02-28T03:03:09;7.77;;;5.53;;
20456;SDS011;10387;51.102;6.848;2023-02-28T03:08:12;6.43;;;5.80;;
20456;SDS011;10387;51.102;6.848;2023-02-28T03:10:41;9.73;;;6.37;;
20456;SDS011;10387;51.102;6.848;2023-02-28T03:21:30;8.63;;;7.13;;
20456;SDS011;10387;51.102;6.848;2023-02-28T03:24:08;7.57;;;6.47;;
20456;SDS011;10387;51.102;6.848;2023-02-28T03:26:51;8.37;;;7.20;;
20456;SDS011;10387;51.102;6.848;2023-02-28T03:29:32;9.47;;;7.07;;
20456;SDS011;10387;51.102;6.848;2023-02-28T03:32:06;8.27;;;6.83;;
20456;SDS011;10387;51.102;6.848;2023-02-28T03:34:48;10.80;;;7.47;;
20456;SDS011;10387;51.102;6.848;2023-02-28T03:37:47;8.67;;;6.60;;
20456;SDS011;10387;51.102;6.848;2023-02-28T03:40:21;9.97;;;7.23;;
20456;SDS011;10387;51.102;6.848;2023-02-28T03:42:52;10.40;;;8.57;;
20456;SDS011;10387;51.102;6.848;2023-02-28T03:45:24;9.20;;;7.30;;
20456;SDS011;10387;51.102;6.848;2023-02-28T03:47:54;9.67;;;7.50;;
20456;SDS011;10387;51.102;6.848;2023-02-28T03:50:39;9.53;;;7.20;;
20456;SDS011;10387;51.102;6.848;2023-02-28T03:53:16;9.90;;;7.00;;
20456;SDS011;10387;51.102;6.848;2023-02-28T03:55:53;8.03;;;7.23;;
20456;SDS011;10387;51.102;6.848;2023-02-28T03:58:37;9.70;;;7.37;;
20456;SDS011;10387;51.102;6.848;2023-02-28T04:01:12;8.03;;;6.90;;
20456;SDS011;10387;51.102;6.848;2023-02-28T04:03:44;10.20;;;7.60;;
20456;SDS011;10387;51.102;6.848;2023-02-28T04:06:13;9.70;;;7.40;;
20456;SDS011;10387;51.102;6.848;2023-02-28T04:08:42;8.00;;;7.20;;
20456;SDS011;10387;51.102;6.848;2023-02-28T04:13:39;8.43;;;7.63;;
20456;SDS011;10387;51.102;6.848;2023-02-28T04:16:08;8.67;;;7.67;;
20456;SDS011;10387;51.102;6.848;2023-02-28T04:18:41;9.57;;;7.63;;
20456;SDS011;10387;51.102;6.848;2023-02-28T04:21:08;9.83;;;7.93;;
20456;SDS011;10387;51.102;6.848;2023-02-28T04:23:34;9.63;;;7.67;;
20456;SDS011;10387;51.102;6.848;2023-02-28T04:26:00;8.37;;;7.17;;
20456;SDS011;10387;51.102;6.848;2023-02-28T04:28:26;8.07;;;7.23;;
20456;SDS011;10387;51.102;6.848;2023-02-28T04:30:56;8.50;;;7.20;;
20456;SDS011;10387;51.102;6.848;2023-02-28T04:33:22;8.40;;;7.43;;
20456;SDS011;10387;51.102;6.848;2023-02-28T04:35:57;9.67;;;7.10;;
20456;SDS011;10387;51.102;6.848;2023-02-28T04:38:37;10.23;;;7.53;;
20456;SDS011;10387;51.102;6.848;2023-02-28T04:41:04;8.10;;;7.30;;
20456;SDS011;10387;51.102;6.848;2023-02-28T04:43:30;8.77;;;7.30;;
20456;SDS011;10387;51.102;6.848;2023-02-28T04:45:57;11.43;;;7.87;;
20456;SDS011;10387;51.102;6.848;2023-02-28T04:48:27;11.13;;;8.70;;
20456;SDS011;10387;51.102;6.848;2023-02-28T04:50:53;10.10;;;7.07;;
20456;SDS011;10387;51.102;6.848;2023-02-28T04:53:19;8.40;;;6.90;;
20456;SDS011;10387;51.102;6.848;2023-02-28T04:55:46;8.07;;;6.50;;
20456;SDS011;10387;51.102;6.848;2023-02-28T04:58:15;8.70;;;6.13;;
20456;SDS011;10387;51.102;6.848;2023-02-28T05:00:41;7.47;;;6.07;;
20456;SDS011;10387;51.102;6.848;2023-02-28T05:03:07;7.93;;;6.33;;
20456;SDS011;10387;51.102;6.848;2023-02-28T05:05:32;6.83;;;5.80;;
20456;SDS011;10387;51.102;6.848;2023-02-28T05:07:58;6.57;;;5.77;;
20456;SDS011;10387;51.102;6.848;2023-02-28T05:10:24;6.57;;;5.77;;
20456;SDS011;10387;51.102;6.848;2023-02-28T05:12:50;5.87;;;5.33;;
20456;SDS011;10387;51.102;6.848;2023-02-28T05:15:16;6.43;;;5.73;;
20456;SDS011;10387;51.102;6.848;2023-02-28T05:17:42;6.07;;;5.57;;
20456;SDS011;10387;51.102;6.848;2023-02-28T05:20:08;6.70;;;6.00;;
20456;SDS011;10387;51.102;6.848;2023-02-28T05:22:38;7.50;;;5.63;;
20456;SDS011;10387;51.102;6.848;2023-02-28T05:25:05;6.10;;;5.50;;
20456;SDS011;10387;51.102;6.848;2023-02-28T05:27:32;6.27;;;5.03;;
20456;SDS011;10387;51.102;6.848;2023-02-28T05:29:58;6.63;;;4.47;;
20456;SDS011;10387;51.102;6.848;2023-02-28T05:32:24;5.60;;;5.00;;
20456;SDS011;10387;51.102;6.848;2023-02-28T05:34:50;6.27;;;4.97;;
20456;SDS011;10387;51.102;6.848;2023-02-28T05:37:16;5.10;;;4.70;;
20456;SDS011;10387;51.102;6.848;2023-02-28T05:39:42;5.60;;;4.60;;
20456;SDS011;10387;51.102;6.848;2023-02-28T05:42:08;5.67;;;4.90;;
20456;SDS011;10387;51.102;6.848;2023-02-28T05:44:34;5.80;;;4.70;;
20456;SDS011;10387;51.102;6.848;2023-02-28T05:47:00;4.93;;;4.47;;
20456;SDS011;10387;51.102;6.848;2023-02-28T05:49:26;5.00;;;4.30;;
20456;SDS011;10387;51.102;6.848;2023-02-28T05:51:52;4.60;;;4.20;;
20456;SDS011;10387;51.102;6.848;2023-02-28T05:54:17;4.67;;;4.27;;
20456;SDS011;10387;51.102;6.848;2023-02-28T05:56:43;7.63;;;4.70;;
20456;SDS011;10387;51.102;6.848;2023-02-28T05:59:10;5.10;;;4.53;;
20456;SDS011;10387;51.102;6.848;2023-02-28T06:01:40;4.97;;;4.47;;
20456;SDS011;10387;51.102;6.848;2023-02-28T06:04:08;5.70;;;4.93;;
20456;SDS011;10387;51.102;6.848;2023-02-28T06:06:35;5.37;;;4.80;;
20456;SDS011;10387;51.102;6.848;2023-02-28T06:09:02;5.47;;;4.60;;
20456;SDS011;10387;51.102;6.848;2023-02-28T06:11:29;6.30;;;4.83;;
20456;SDS011;10387;51.102;6.848;2023-02-28T06:13:58;6.23;;;5.07;;
20456;SDS011;10387;51.102;6.848;2023-02-28T06:16:25;5.03;;;4.53;;
20456;SDS011;10387;51.102;6.848;2023-02-28T06:18:52;5.67;;;4.77;;
20456;SDS011;10387;51.102;6.848;2023-02-28T06:21:21;4.30;;;4.00;;
20456;SDS011;10387;51.102;6.848;2023-02-28T06:23:47;5.10;;;4.60;;
20456;SDS011;10387;51.102;6.848;2023-02-28T06:26:13;4.90;;;4.37;;
20456;SDS011;10387;51.102;6.848;2023-02-28T06:28:38;5.03;;;4.53;;
20456;SDS011;10387;51.102;6.848;2023-02-28T06:31:11;5.30;;;4.43;;
20456;SDS011;10387;51.102;6.848;2023-02-28T06:33:39;4.97;;;4.57;;
20456;SDS011;10387;51.102;6.848;2023-02-28T06:36:06;5.13;;;4.63;;
20456;SDS011;10387;51.102;6.848;2023-02-28T06:38:32;5.43;;;4.70;;
20456;SDS011;10387;51.102;6.848;2023-02-28T06:40:59;5.37;;;4.43;;
20456;SDS011;10387;51.102;6.848;2023-02-28T06:43:25;5.43;;;4.93;;
20456;SDS011;10387;51.102;6.848;2023-02-28T06:45:54;5.23;;;4.40;;
20456;SDS011;10387;51.102;6.848;2023-02-28T06:48:21;5.23;;;4.70;;
20456;SDS011;10387;51.102;6.848;2023-02-28T06:50:47;5.30;;;4.50;;
20456;SDS011;10387;51.102;6.848;2023-02-28T06:53:13;6.80;;;4.93;;
20456;SDS011;10387;51.102;6.848;2023-02-28T06:55:40;5.07;;;4.63;;
20456;SDS011;10387;51.102;6.848;2023-02-28T06:58:06;5.47;;;4.83;;
20456;SDS011;10387;51.102;6.848;2023-02-28T07:00:44;5.83;;;4.57;;
20456;SDS011;10387;51.102;6.848;2023-02-28T07:03:10;5.97;;;5.00;;
20456;SDS011;10387;51.102;6.848;2023-02-28T07:05:37;5.37;;;4.63;;
20456;SDS011;10387;51.102;6.848;2023-02-28T07:08:04;4.97;;;4.47;;
20456;SDS011;10387;51.102;6.848;2023-02-28T07:10:31;5.47;;;4.70;;
20456;SDS011;10387;51.102;6.848;2023-02-28T07:12:58;5.23;;;4.83;;
20456;SDS011;10387;51.102;6.848;2023-02-28T07:15:24;5.23;;;4.70;;
20456;SDS011;10387;51.102;6.848;2023-02-28T07:17:49;5.43;;;4.53;;
20456;SDS011;10387;51.102;6.848;2023-02-28T07:20:15;6.37;;;4.67;;
20456;SDS011;10387;51.102;6.848;2023-02-28T07:22:41;5.80;;;4.90;;
20456;SDS011;10387;51.102;6.848;2023-02-28T07:25:09;5.57;;;4.73;;
20456;SDS011;10387;51.102;6.848;2023-02-28T07:27:35;6.83;;;5.67;;
20456;SDS011;10387;51.102;6.848;2023-02-28T07:30:00;17.77;;;11.93;;
20456;SDS011;10387;51.102;6.848;2023-02-28T07:32:28;15.80;;;12.33;;
20456;SDS011;10387;51.102;6.848;2023-02-28T07:35:09;7.90;;;7.10;;
20456;SDS011;10387;51.102;6.848;2023-02-28T07:37:34;8.03;;;7.23;;
20456;SDS011;10387;51.102;6.848;2023-02-28T07:40:04;9.43;;;8.43;;
20456;SDS011;10387;51.102;6.848;2023-02-28T07:42:33;11.77;;;10.67;;
20456;SDS011;10387;51.102;6.848;2023-02-28T07:45:03;8.53;;;6.77;;
20456;SDS011;10387;51.102;6.848;2023-02-28T07:47:30;8.00;;;6.70;;
20456;SDS011;10387;51.102;6.848;2023-02-28T07:49:56;13.67;;;12.30;;
20456;SDS011;10387;51.102;6.848;2023-02-28T07:52:23;5.80;;;5.37;;
20456;SDS011;10387;51.102;6.848;2023-02-28T07:54:49;7.60;;;6.80;;
20456;SDS011;10387;51.102;6.848;2023-02-28T07:57:15;5.50;;;5.00;;
20456;SDS011;10387;51.102;6.848;2023-02-28T07:59:42;5.27;;;4.87;;
20456;SDS011;10387;51.102;6.848;2023-02-28T08:02:12;4.67;;;4.27;;
20456;SDS011;10387;51.102;6.848;2023-02-28T08:04:39;5.00;;;4.20;;
20456;SDS011;10387;51.102;6.848;2023-02-28T08:07:05;4.73;;;4.33;;
20456;SDS011;10387;51.102;6.848;2023-02-28T08:09:31;5.00;;;4.27;;
20456;SDS011;10387;51.102;6.848;2023-02-28T08:11:57;7.03;;;4.47;;
20456;SDS011;10387;51.102;6.848;2023-02-28T08:14:22;4.60;;;4.20;;
20456;SDS011;10387;51.102;6.848;2023-02-28T08:16:48;4.67;;;3.67;;
20456;SDS011;10387;51.102;6.848;2023-02-28T08:19:14;4.57;;;4.03;;
20456;SDS011;10387;51.102;6.848;2023-02-28T08:21:39;5.97;;;5.23;;
20456;SDS011;10387;51.102;6.848;2023-02-28T08:24:05;9.30;;;5.50;;
20456;SDS011;10387;51.102;6.848;2023-02-28T08:26:31;6.50;;;4.93;;
20456;SDS011;10387;51.102;6.848;2023-02-28T08:28:57;7.50;;;4.50;;
20456;SDS011;10387;51.102;6.848;2023-02-28T08:31:23;4.57;;;3.50;;
20456;SDS011;10387;51.102;6.848;2023-02-28T08:33:49;3.27;;;3.00;;
20456;SDS011;10387;51.102;6.848;2023-02-28T08:36:17;3.67;;;3.37;;
20456;SDS011;10387;51.102;6.848;2023-02-28T08:38:43;10.43;;;6.60;;
20456;SDS011;10387;51.102;6.848;2023-02-28T08:41:09;4.47;;;3.57;;
20456;SDS011;10387;51.102;6.848;2023-02-28T08:43:36;3.83;;;3.43;;
20456;SDS011;10387;51.102;6.848;2023-02-28T08:46:03;3.33;;;3.03;;
20456;SDS011;10387;51.102;6.848;2023-02-28T08:48:30;5.67;;;4.87;;
20456;SDS011;10387;51.102;6.848;2023-02-28T08:51:01;3.57;;;3.27;;
20456;SDS011;10387;51.102;6.848;2023-02-28T08:53:51;8.03;;;6.47;;
20456;SDS011;10387;51.102;6.848;2023-02-28T08:56:18;3.50;;;3.20;;
20456;SDS011;10387;51.102;6.848;2023-02-28T08:58:45;11.83;;;8.13;;
20456;SDS011;10387;51.102;6.848;2023-02-28T09:03:45;7.20;;;5.10;;
20456;SDS011;10387;51.102;6.848;2023-02-28T09:06:12;2.80;;;2.47;;
20456;SDS011;10387;51.102;6.848;2023-02-28T09:08:40;3.70;;;2.87;;
20456;SDS011;10387;51.102;6.848;2023-02-28T09:11:05;4.10;;;3.70;;
20456;SDS011;10387;51.102;6.848;2023-02-28T09:13:31;2.60;;;2.40;;
20456;SDS011;10387;51.102;6.848;2023-02-28T09:15:58;2.57;;;2.20;;
20456;SDS011;10387;51.102;6.848;2023-02-28T09:18:25;2.33;;;2.10;;
20456;SDS011;10387;51.102;6.848;2023-02-28T09:20:51;2.80;;;2.53;;
20456;SDS011;10387;51.102;6.848;2023-02-28T09:23:17;2.30;;;2.10;;
20456;SDS011;10387;51.102;6.848;2023-02-28T09:25:47;2.20;;;2.10;;
20456;SDS011;10387;51.102;6.848;2023-02-28T09:28:15;4.40;;;2.83;;
20456;SDS011;10387;51.102;6.848;2023-02-28T09:30:42;6.57;;;5.87;;
20456;SDS011;10387;51.102;6.848;2023-02-28T09:33:12;5.80;;;3.90;;
20456;SDS011;10387;51.102;6.848;2023-02-28T09:35:38;3.70;;;3.40;;
20456;SDS011;10387;51.102;6.848;2023-02-28T09:38:04;4.57;;;2.63;;
20456;SDS011;10387;51.102;6.848;2023-02-28T09:40:34;2.70;;;2.50;;
20456;SDS011;10387;51.102;6.848;2023-02-28T09:43:22;3.97;;;3.50;;
20456;SDS011;10387;51.102;6.848;2023-02-28T09:48:46;2.63;;;2.30;;
20456;SDS011;10387;51.102;6.848;2023-02-28T09:51:25;4.67;;;3.70;;
20456;SDS011;10387;51.102;6.848;2023-02-28T09:53:55;7.23;;;5.20;;
20456;SDS011;10387;51.102;6.848;2023-02-28T09:56:22;7.23;;;4.70;;
20456;SDS011;10387;51.102;6.848;2023-02-28T09:58:57;3.43;;;2.60;;
20456;SDS011;10387;51.102;6.848;2023-02-28T10:04:08;4.23;;;3.27;;
20456;SDS011;10387;51.102;6.848;2023-02-28T10:07:02;3.63;;;2.90;;
20456;SDS011;10387;51.102;6.848;2023-02-28T10:09:47;3.10;;;2.80;;
20456;SDS011;10387;51.102;6.848;2023-02-28T10:12:17;3.23;;;2.93;;
20456;SDS011;10387;51.102;6.848;2023-02-28T10:14:44;2.80;;;2.60;;
20456;SDS011;10387;51.102;6.848;2023-02-28T10:17:14;2.90;;;2.70;;
20456;SDS011;10387;51.102;6.848;2023-02-28T10:22:58;2.80;;;2.50;;
20456;SDS011;10387;51.102;6.848;2023-02-28T10:25:42;2.93;;;2.67;;
20456;SDS011;10387;51.102;6.848;2023-02-28T10:28:14;3.07;;;2.63;;
20456;SDS011;10387;51.102;6.848;2023-02-28T10:30:45;2.93;;;2.63;;
20456;SDS011;10387;51.102;6.848;2023-02-28T10:33:17;2.90;;;2.70;;
20456;SDS011;10387;51.102;6.848;2023-02-28T10:35:57;3.00;;;2.70;;
20456;SDS011;10387;51.102;6.848;2023-02-28T10:38:25;3.77;;;2.67;;
20456;SDS011;10387;51.102;6.848;2023-02-28T10:41:10;3.67;;;3.03;;
20456;SDS011;10387;51.102;6.848;2023-02-28T10:43:38;2.83;;;2.63;;
20456;SDS011;10387;51.102;6.848;2023-02-28T10:48:38;2.90;;;2.70;;
20456;SDS011;10387;51.102;6.848;2023-02-28T10:51:11;6.07;;;2.87;;
20456;SDS011;10387;51.102;6.848;2023-02-28T10:53:47;2.97;;;2.33;;
20456;SDS011;10387;51.102;6.848;2023-02-28T10:56:16;3.43;;;3.00;;
20456;SDS011;10387;51.102;6.848;2023-02-28T11:01:15;3.23;;;2.93;;
20456;SDS011;10387;51.102;6.848;2023-02-28T11:03:43;3.20;;;2.90;;
20456;SDS011;10387;51.102;6.848;2023-02-28T11:06:16;3.00;;;2.70;;
20456;SDS011;10387;51.102;6.848;2023-02-28T11:08:45;2.70;;;2.50;;
20456;SDS011;10387;51.102;6.848;2023-02-28T11:11:14;2.97;;;2.77;;
20456;SDS011;10387;51.102;6.848;2023-02-28T11:13:41;3.93;;;2.80;;
20456;SDS011;10387;51.102;6.848;2023-02-28T11:16:11;3.30;;;2.90;;
20456;SDS011;10387;51.102;6.848;2023-02-28T11:18:49;3.37;;;3.07;;
20456;SDS011;10387;51.102;6.848;2023-02-28T11:21:24;3.37;;;2.70;;
20456;SDS011;10387;51.102;6.848;2023-02-28T11:23:54;3.40;;;3.07;;
20456;SDS011;10387;51.102;6.848;2023-02-28T11:26:45;3.40;;;3.10;;
20456;SDS011;10387;51.102;6.848;2023-02-28T11:34:47;3.40;;;3.10;;
20456;SDS011;10387;51.102;6.848;2023-02-28T11:37:30;3.83;;;2.90;;
20456;SDS011;10387;51.102;6.848;2023-02-28T11:39:57;3.37;;;2.80;;
20456;SDS011;10387;51.102;6.848;2023-02-28T11:42:37;3.57;;;3.27;;
20456;SDS011;10387;51.102;6.848;2023-02-28T11:45:45;3.00;;;2.70;;
20456;SDS011;10387;51.102;6.848;2023-02-28T11:51:34;3.43;;;3.13;;
20456;SDS011;10387;51.102;6.848;2023-02-28T11:56:36;3.83;;;3.53;;
20456;SDS011;10387;51.102;6.848;2023-02-28T12:02:19;3.97;;;3.53;;
20456;SDS011;10387;51.102;6.848;2023-02-28T12:05:15;3.57;;;3.27;;
20456;SDS011;10387;51.102;6.848;2023-02-28T12:16:26;3.80;;;3.50;;
20456;SDS011;10387;51.102;6.848;2023-02-28T12:27:00;7.00;;;5.43;;
20456;SDS011;10387;51.102;6.848;2023-02-28T12:29:32;4.63;;;4.07;;
20456;SDS011;10387;51.102;6.848;2023-02-28T12:34:47;4.13;;;3.53;;
20456;SDS011;10387;51.102;6.848;2023-02-28T12:37:22;3.90;;;3.60;;
20456;SDS011;10387;51.102;6.848;2023-02-28T12:40:12;4.10;;;3.70;;
20456;SDS011;10387;51.102;6.848;2023-02-28T12:42:44;3.57;;;3.27;;
20456;SDS011;10387;51.102;6.848;2023-02-28T12:45:17;3.90;;;3.43;;
20456;SDS011;10387;51.102;6.848;2023-02-28T12:48:08;5.23;;;3.27;;
20456;SDS011;10387;51.102;6.848;2023-02-28T12:50:39;3.27;;;2.93;;
20456;SDS011;10387;51.102;6.848;2023-02-28T12:56:02;4.73;;;3.57;;
20456;SDS011;10387;51.102;6.848;2023-02-28T13:04:44;4.00;;;3.60;;
20456;SDS011;10387;51.102;6.848;2023-02-28T13:07:41;4.20;;;3.90;;
20456;SDS011;10387;51.102;6.848;2023-02-28T13:10:23;4.00;;;3.60;;
20456;SDS011;10387;51.102;6.848;2023-02-28T13:12:50;3.20;;;3.00;;
20456;SDS011;10387;51.102;6.848;2023-02-28T13:17:48;4.20;;;3.80;;
20456;SDS011;10387;51.102;6.848;2023-02-28T13:20:20;3.70;;;3.40;;
20456;SDS011;10387;51.102;6.848;2023-02-28T13:22:51;4.83;;;3.70;;
20456;SDS011;10387;51.102;6.848;2023-02-28T13:27:51;3.70;;;3.03;;
20456;SDS011;10387;51.102;6.848;2023-02-28T13:36:24;3.23;;;2.80;;
20456;SDS011;10387;51.102;6.848;2023-02-28T13:38:56;3.20;;;2.90;;
20456;SDS011;10387;51.102;6.848;2023-02-28T13:49:47;3.23;;;2.90;;
20456;SDS011;10387;51.102;6.848;2023-02-28T14:05:38;3.87;;;3.47;;
20456;SDS011;10387;51.102;6.848;2023-02-28T14:08:06;4.40;;;3.40;;
20456;SDS011;10387;51.102;6.848;2023-02-28T14:10:44;4.80;;;3.37;;
20456;SDS011;10387;51.102;6.848;2023-02-28T14:16:16;4.10;;;3.37;;
20456;SDS011;10387;51.102;6.848;2023-02-28T14:18:49;3.50;;;3.20;;
20456;SDS011;10387;51.102;6.848;2023-02-28T14:21:21;3.80;;;3.50;;
20456;SDS011;10387;51.102;6.848;2023-02-28T14:35:46;3.27;;;3.07;;
20456;SDS011;10387;51.102;6.848;2023-02-28T14:38:26;6.57;;;3.63;;
20456;SDS011;10387;51.102;6.848;2023-02-28T14:41:12;3.57;;;3.27;;
20456;SDS011;10387;51.102;6.848;2023-02-28T14:43:55;4.10;;;3.70;;
20456;SDS011;10387;51.102;6.848;2023-02-28T14:46:35;3.50;;;3.20;;
20456;SDS011;10387;51.102;6.848;2023-02-28T14:49:04;4.13;;;3.33;;
20456;SDS011;10387;51.102;6.848;2023-02-28T14:51:32;3.63;;;3.10;;
20456;SDS011;10387;51.102;6.848;2023-02-28T14:53:59;3.73;;;3.33;;
20456;SDS011;10387;51.102;6.848;2023-02-28T14:56:32;4.60;;;3.80;;
20456;SDS011;10387;51.102;6.848;2023-02-28T14:59:03;4.80;;;3.70;;
20456;SDS011;10387;51.102;6.848;2023-02-28T15:01:30;3.90;;;3.20;;
20456;SDS011;10387;51.102;6.848;2023-02-28T15:04:03;4.17;;;3.07;;
20456;SDS011;10387;51.102;6.848;2023-02-28T15:06:31;6.10;;;4.67;;
20456;SDS011;10387;51.102;6.848;2023-02-28T15:09:13;5.97;;;5.17;;
20456;SDS011;10387;51.102;6.848;2023-02-28T15:11:47;6.57;;;5.37;;
20456;SDS011;10387;51.102;6.848;2023-02-28T15:14:19;5.47;;;4.07;;
20456;SDS011;10387;51.102;6.848;2023-02-28T15:16:47;4.10;;;3.60;;
20456;SDS011;10387;51.102;6.848;2023-02-28T15:21:44;5.33;;;4.57;;
20456;SDS011;10387;51.102;6.848;2023-02-28T15:24:15;4.07;;;3.67;;
20456;SDS011;10387;51.102;6.848;2023-02-28T15:26:49;5.23;;;4.70;;
20456;SDS011;10387;51.102;6.848;2023-02-28T15:29:21;4.70;;;4.30;;
20456;SDS011;10387;51.102;6.848;2023-02-28T15:31:50;4.57;;;4.17;;
20456;SDS011;10387;51.102;6.848;2023-02-28T15:34:33;4.73;;;3.90;;
20456;SDS011;10387;51.102;6.848;2023-02-28T15:39:56;3.83;;;3.40;;
20456;SDS011;10387;51.102;6.848;2023-02-28T15:42:29;4.10;;;3.60;;
20456;SDS011;10387;51.102;6.848;2023-02-28T15:44:56;4.90;;;3.87;;
20456;SDS011;10387;51.102;6.848;2023-02-28T15:47:26;3.80;;;3.47;;
20456;SDS011;10387;51.102;6.848;2023-02-28T15:50:00;3.80;;;3.47;;
20456;SDS011;10387;51.102;6.848;2023-02-28T15:52:44;4.47;;;3.57;;
20456;SDS011;10387;51.102;6.848;2023-02-28T15:55:20;4.17;;;3.80;;
20456;SDS011;10387;51.102;6.848;2023-02-28T15:58:01;3.73;;;3.33;;
20456;SDS011;10387;51.102;6.848;2023-02-28T16:00:28;3.83;;;3.53;;
20456;SDS011;10387;51.102;6.848;2023-02-28T16:02:55;4.23;;;3.80;;
20456;SDS011;10387;51.102;6.848;2023-02-28T16:05:27;17.77;;;11.27;;
20456;SDS011;10387;51.102;6.848;2023-02-28T16:08:00;4.73;;;4.23;;
20456;SDS011;10387;51.102;6.848;2023-02-28T16:10:38;15.43;;;11.03;;
20456;SDS011;10387;51.102;6.848;2023-02-28T16:13:05;9.07;;;5.60;;
20456;SDS011;10387;51.102;6.848;2023-02-28T16:15:34;6.53;;;5.20;;
20456;SDS011;10387;51.102;6.848;2023-02-28T16:18:07;7.03;;;5.83;;
20456;SDS011;10387;51.102;6.848;2023-02-28T16:20:35;11.30;;;8.07;;
20456;SDS011;10387;51.102;6.848;2023-02-28T16:23:00;10.50;;;8.10;;
20456;SDS011;10387;51.102;6.848;2023-02-28T16:25:35;6.00;;;5.40;;
20456;SDS011;10387;51.102;6.848;2023-02-28T16:28:08;7.80;;;6.83;;
20456;SDS011;10387;51.102;6.848;2023-02-28T16:30:42;4.53;;;4.13;;
20456;SDS011;10387;51.102;6.848;2023-02-28T16:33:08;6.20;;;5.57;;
20456;SDS011;10387;51.102;6.848;2023-02-28T16:35:41;6.50;;;5.90;;
20456;SDS011;10387;51.102;6.848;2023-02-28T16:38:07;8.17;;;6.00;;
20456;SDS011;10387;51.102;6.848;2023-02-28T16:40:33;5.63;;;5.10;;
20456;SDS011;10387;51.102;6.848;2023-02-28T16:43:00;5.93;;;5.43;;
20456;SDS011;10387;51.102;6.848;2023-02-28T16:45:31;5.90;;;5.30;;
20456;SDS011;10387;51.102;6.848;2023-02-28T16:47:57;4.80;;;4.37;;
20456;SDS011;10387;51.102;6.848;2023-02-28T16:50:32;5.10;;;4.70;;
20456;SDS011;10387;51.102;6.848;2023-02-28T16:53:04;5.03;;;4.63;;
20456;SDS011;10387;51.102;6.848;2023-02-28T16:55:29;6.00;;;5.13;;
20456;SDS011;10387;51.102;6.848;2023-02-28T16:57:56;6.10;;;4.90;;
20456;SDS011;10387;51.102;6.848;2023-02-28T17:00:24;6.40;;;4.50;;
20456;SDS011;10387;51.102;6.848;2023-02-28T17:02:51;6.07;;;5.57;;
20456;SDS011;10387;51.102;6.848;2023-02-28T17:05:17;6.53;;;5.73;;
20456;SDS011;10387;51.102;6.848;2023-02-28T17:07:44;6.93;;;5.80;;
20456;SDS011;10387;51.102;6.848;2023-02-28T17:12:44;7.20;;;6.20;;
20456;SDS011;10387;51.102;6.848;2023-02-28T17:15:14;8.27;;;7.17;;
20456;SDS011;10387;51.102;6.848;2023-02-28T17:17:41;9.83;;;6.60;;
20456;SDS011;10387;51.102;6.848;2023-02-28T17:20:12;6.50;;;5.90;;
20456;SDS011;10387;51.102;6.848;2023-02-28T17:22:40;7.73;;;5.77;;
20456;SDS011;10387;51.102;6.848;2023-02-28T17:25:06;5.83;;;5.23;;
20456;SDS011;10387;51.102;6.848;2023-02-28T17:27:33;6.13;;;5.57;;
20456;SDS011;10387;51.102;6.848;2023-02-28T17:29:59;6.73;;;5.90;;
20456;SDS011;10387;51.102;6.848;2023-02-28T17:32:25;5.90;;;5.40;;
20456;SDS011;10387;51.102;6.848;2023-02-28T17:34:52;7.60;;;6.07;;